createdAt,value
2018-03-14T00:01:44.389Z,3.80
2018-03-14T00:04:12.940Z,3.70
2018-03-14T00:06:41.098Z,3.60
2018-03-14T00:09:09.242Z,3.60
2018-03-14T00:11:37.396Z,3.60
2018-03-14T00:14:05.526Z,3.60
2018-03-14T00:16:33.668Z,3.60
2018-03-14T00:19:01.811Z,3.60
2018-03-14T00:21:29.956Z,3.70
2018-03-14T00:23:58.099Z,3.60
2018-03-14T00:26:26.251Z,3.60
2018-03-14T00:28:54.393Z,3.70
2018-03-14T00:31:22.622Z,3.60
2018-03-14T00:33:50.756Z,3.70
2018-03-14T00:36:18.902Z,3.60
2018-03-14T00:38:47.098Z,3.50
2018-03-14T00:41:15.263Z,3.50
2018-03-14T00:43:43.394Z,3.60
2018-03-14T00:46:11.550Z,3.50
2018-03-14T00:48:39.805Z,3.50
2018-03-14T00:51:07.949Z,3.60
2018-03-14T00:53:36.078Z,3.60
2018-03-14T00:56:04.214Z,3.50
2018-03-14T00:58:32.359Z,3.50
2018-03-14T01:01:00.494Z,3.50
2018-03-14T01:03:28.641Z,3.40
2018-03-14T01:05:56.786Z,3.50
2018-03-14T01:08:24.935Z,3.40
2018-03-14T01:10:53.110Z,3.50
2018-03-14T01:13:21.266Z,3.40
2018-03-14T01:15:49.762Z,3.50
2018-03-14T01:18:17.928Z,3.40
2018-03-14T01:20:46.138Z,3.40
2018-03-14T01:23:14.289Z,3.50
2018-03-14T01:25:42.430Z,3.50
2018-03-14T01:28:10.590Z,3.50
2018-03-14T01:30:38.731Z,3.50
2018-03-14T01:33:07.640Z,3.50
2018-03-14T01:35:35.791Z,3.40
2018-03-14T01:38:04.707Z,3.40
2018-03-14T01:40:32.862Z,3.40
2018-03-14T01:43:01.014Z,3.40
2018-03-14T01:45:29.167Z,3.40
2018-03-14T01:47:57.298Z,3.70
2018-03-14T01:50:25.550Z,3.50
2018-03-14T01:53:06.309Z,3.60
2018-03-14T01:55:34.465Z,3.60
2018-03-14T01:58:02.604Z,3.50
2018-03-14T02:00:30.765Z,3.50
2018-03-14T02:02:58.916Z,3.60
2018-03-14T02:05:27.842Z,3.50
2018-03-14T02:07:55.988Z,3.50
2018-03-14T02:10:24.153Z,3.50
2018-03-14T02:12:53.171Z,3.40
2018-03-14T02:15:21.300Z,3.40
2018-03-14T02:17:50.226Z,3.40
2018-03-14T02:20:18.365Z,3.40
2018-03-14T02:22:46.525Z,3.40
2018-03-14T02:25:14.658Z,3.40
2018-03-14T02:27:42.803Z,3.40
2018-03-14T02:30:11.044Z,3.40
2018-03-14T02:32:39.963Z,3.40
2018-03-14T02:35:08.098Z,3.30
2018-03-14T02:37:36.268Z,3.40
2018-03-14T02:40:04.422Z,3.40
2018-03-14T02:42:32.606Z,3.30
2018-03-14T02:45:00.810Z,3.40
2018-03-14T02:47:29.741Z,3.30
2018-03-14T02:49:57.887Z,3.30
2018-03-14T02:52:26.053Z,3.30
2018-03-14T02:54:54.232Z,3.30
2018-03-14T02:57:22.369Z,3.30
2018-03-14T02:59:50.524Z,3.40
2018-03-14T03:02:18.704Z,3.40
2018-03-14T03:04:46.885Z,3.20
2018-03-14T03:07:15.150Z,3.20
2018-03-14T03:09:43.321Z,3.20
2018-03-14T03:12:11.544Z,3.20
2018-03-14T03:14:39.690Z,3.30
2018-03-14T03:17:08.587Z,3.20
2018-03-14T03:19:37.518Z,3.20
2018-03-14T03:22:05.728Z,3.20
2018-03-14T03:24:33.874Z,3.20
2018-03-14T03:27:02.011Z,3.20
2018-03-14T03:29:30.176Z,3.30
2018-03-14T03:31:58.323Z,3.10
2018-03-14T03:34:27.222Z,3.30
2018-03-14T03:36:56.130Z,3.00
2018-03-14T03:39:24.283Z,3.00
2018-03-14T03:41:53.278Z,3.10
2018-03-14T03:44:21.439Z,3.10
2018-03-14T03:46:50.374Z,3.10
2018-03-14T03:49:18.505Z,3.10
2018-03-14T03:51:47.466Z,3.10
2018-03-14T03:54:15.564Z,3.10
2018-03-14T03:56:43.735Z,2.90
2018-03-14T03:59:12.673Z,2.90
2018-03-14T04:01:40.802Z,2.90
2018-03-14T04:04:09.740Z,2.90
2018-03-14T04:06:37.874Z,2.90
2018-03-14T04:09:06.031Z,3.00
2018-03-14T04:11:34.156Z,3.10
2018-03-14T04:14:02.306Z,3.00
2018-03-14T04:16:30.461Z,3.00
2018-03-14T04:18:58.635Z,3.00
2018-03-14T04:21:26.821Z,3.30
2018-03-14T04:23:55.722Z,3.30
2018-03-14T04:26:23.869Z,3.30
2018-03-14T04:28:52.018Z,3.20
2018-03-14T04:31:20.160Z,3.10
2018-03-14T04:33:48.326Z,3.00
2018-03-14T04:36:16.450Z,2.90
2018-03-14T04:38:56.705Z,2.70
2018-03-14T04:41:24.843Z,2.80
2018-03-14T04:43:52.993Z,2.80
2018-03-14T04:46:21.123Z,2.90
2018-03-14T04:48:49.251Z,2.90
2018-03-14T04:51:17.490Z,2.80
2018-03-14T04:53:45.618Z,2.80
2018-03-14T04:56:13.770Z,3.00
2018-03-14T04:58:41.921Z,3.00
2018-03-14T05:01:10.137Z,3.00
2018-03-14T05:03:38.274Z,2.70
2018-03-14T05:06:06.417Z,2.70
2018-03-14T05:08:34.542Z,2.80
2018-03-14T05:11:02.690Z,2.70
2018-03-14T05:13:30.843Z,2.70
2018-03-14T05:15:58.990Z,2.70
2018-03-14T05:18:27.140Z,2.70
2018-03-14T05:20:55.325Z,2.70
2018-03-14T05:23:24.235Z,2.70
2018-03-14T05:25:52.402Z,2.70
2018-03-14T05:28:20.514Z,2.70
2018-03-14T05:30:48.643Z,2.70
2018-03-14T05:33:16.793Z,2.70
2018-03-14T05:35:45.698Z,2.80
2018-03-14T05:38:13.868Z,2.80
2018-03-14T05:40:42.758Z,2.90
2018-03-14T05:43:11.669Z,2.90
2018-03-14T05:45:39.809Z,2.90
2018-03-14T05:48:08.723Z,2.90
2018-03-14T05:50:36.962Z,2.90
2018-03-14T05:53:05.897Z,3.00
2018-03-14T05:55:34.027Z,3.00
2018-03-14T05:58:02.937Z,2.90
2018-03-14T06:00:31.074Z,2.90
2018-03-14T06:02:59.227Z,3.00
2018-03-14T06:05:27.726Z,3.10
2018-03-14T06:07:55.877Z,3.00
2018-03-14T06:10:24.021Z,3.00
2018-03-14T06:12:52.182Z,3.00
2018-03-14T06:15:20.312Z,3.10
2018-03-14T06:17:48.458Z,3.10
2018-03-14T06:20:16.662Z,3.20
2018-03-14T06:22:44.808Z,3.20
2018-03-14T06:25:12.946Z,3.20
2018-03-14T06:27:41.090Z,3.20
2018-03-14T06:30:10.012Z,3.20
2018-03-14T06:32:38.170Z,3.20
2018-03-14T06:35:06.314Z,3.30
2018-03-14T06:37:34.455Z,3.30
2018-03-14T06:40:02.593Z,3.40
2018-03-14T06:42:30.752Z,3.40
2018-03-14T06:44:59.654Z,3.30
2018-03-14T06:47:27.829Z,3.40
2018-03-14T06:49:55.991Z,3.40
2018-03-14T06:52:24.115Z,3.50
2018-03-14T06:54:52.412Z,3.50
2018-03-14T06:57:20.516Z,3.50
2018-03-14T07:00:00.566Z,3.50
2018-03-14T07:02:40.717Z,3.50
2018-03-14T07:05:20.655Z,3.60
2018-03-14T07:07:49.554Z,3.50
2018-03-14T07:10:17.694Z,3.50
2018-03-14T07:12:46.626Z,3.60
2018-03-14T07:15:14.783Z,3.60
2018-03-14T07:17:42.922Z,3.60
2018-03-14T07:20:11.090Z,3.60
2018-03-14T07:22:39.214Z,3.60
2018-03-14T07:25:07.333Z,3.80
2018-03-14T07:27:35.494Z,3.70
2018-03-14T07:30:03.618Z,3.70
2018-03-14T07:32:31.759Z,3.80
2018-03-14T07:35:00.654Z,3.70
2018-03-14T07:37:28.806Z,3.70
2018-03-14T07:39:56.928Z,3.60
2018-03-14T07:42:25.066Z,3.70
2018-03-14T07:44:53.961Z,3.70
2018-03-14T07:47:22.106Z,3.70
2018-03-14T07:49:50.242Z,3.80
2018-03-14T07:52:18.394Z,3.70
2018-03-14T07:54:46.541Z,3.80
2018-03-14T07:57:14.674Z,3.80
2018-03-14T07:59:42.810Z,4.00
2018-03-14T08:02:10.970Z,4.10
2018-03-14T08:04:39.102Z,4.20
2018-03-14T08:07:07.256Z,4.30
2018-03-14T08:09:36.146Z,4.20
2018-03-14T08:12:04.302Z,4.20
2018-03-14T08:14:32.442Z,4.10
2018-03-14T08:17:00.567Z,4.10
2018-03-14T08:19:28.730Z,4.20
2018-03-14T08:21:57.634Z,4.20
2018-03-14T08:24:25.791Z,4.20
2018-03-14T08:26:54.686Z,4.50
2018-03-14T08:29:22.856Z,4.40
2018-03-14T08:31:51.752Z,4.50
2018-03-14T08:34:19.940Z,4.50
2018-03-14T08:36:48.027Z,4.70
2018-03-14T08:39:16.177Z,4.80
2018-03-14T08:41:44.306Z,5.00
2018-03-14T08:44:12.448Z,5.00
2018-03-14T08:46:40.630Z,4.90
2018-03-14T08:49:08.780Z,5.00
2018-03-14T08:51:36.915Z,5.20
2018-03-14T08:54:05.042Z,5.50
2018-03-14T08:56:33.194Z,5.80
2018-03-14T08:59:01.344Z,6.10
2018-03-14T09:01:29.482Z,5.70
2018-03-14T09:03:57.606Z,5.50
2018-03-14T09:06:25.754Z,5.50
2018-03-14T09:08:53.884Z,5.90
2018-03-14T09:11:22.100Z,5.80
2018-03-14T09:13:50.579Z,5.80
2018-03-14T09:16:18.722Z,5.90
2018-03-14T09:18:46.851Z,6.00
2018-03-14T09:21:15.757Z,5.80
2018-03-14T09:23:44.718Z,5.60
2018-03-14T09:26:12.899Z,5.60
2018-03-14T09:28:41.019Z,5.20
2018-03-14T09:31:09.148Z,5.10
2018-03-14T09:33:38.053Z,5.20
2018-03-14T09:36:06.969Z,5.40
2018-03-14T09:38:35.110Z,5.40
2018-03-14T09:41:03.252Z,5.50
2018-03-14T09:43:31.400Z,5.50
2018-03-14T09:45:59.582Z,5.50
2018-03-14T09:48:27.694Z,5.50
2018-03-14T09:50:55.832Z,5.30
2018-03-14T09:53:23.995Z,5.40
2018-03-14T09:55:52.144Z,5.20
2018-03-14T09:58:20.268Z,5.40
2018-03-14T10:00:48.461Z,5.60
2018-03-14T10:03:17.357Z,5.60
2018-03-14T10:05:45.859Z,5.60
2018-03-14T10:08:13.962Z,5.50
2018-03-14T10:10:42.114Z,5.60
2018-03-14T10:13:10.275Z,5.70
2018-03-14T10:15:38.430Z,5.90
2018-03-14T10:18:06.563Z,5.90
2018-03-14T10:20:34.702Z,5.70
2018-03-14T10:23:02.830Z,5.90
2018-03-14T10:25:31.058Z,5.80
2018-03-14T10:27:59.150Z,5.90
2018-03-14T10:30:28.746Z,6.10
2018-03-14T10:32:56.881Z,6.10
2018-03-14T10:35:25.035Z,5.60
2018-03-14T10:37:53.159Z,5.40
2018-03-14T10:40:21.288Z,5.60
2018-03-14T10:42:49.450Z,5.60
2018-03-14T10:45:17.584Z,5.80
2018-03-14T10:47:45.728Z,5.80
2018-03-14T10:50:13.862Z,6.00
2018-03-14T10:52:42.018Z,6.20
2018-03-14T10:55:10.163Z,6.10
2018-03-14T10:57:38.323Z,5.80
2018-03-14T11:00:06.457Z,5.90
2018-03-14T11:02:34.602Z,6.00
2018-03-14T11:05:03.491Z,6.20
2018-03-14T11:07:31.646Z,6.20
2018-03-14T11:10:00.546Z,5.80
2018-03-14T11:12:29.459Z,5.80
2018-03-14T11:14:57.577Z,5.80
2018-03-14T11:17:27.342Z,6.30
2018-03-14T11:19:55.479Z,6.30
2018-03-14T11:22:23.633Z,6.30
2018-03-14T11:24:51.907Z,6.60
2018-03-14T11:27:20.035Z,6.40
2018-03-14T11:29:48.201Z,6.50
2018-03-14T11:32:17.095Z,6.90
2018-03-14T11:34:45.235Z,6.80
2018-03-14T11:37:13.359Z,7.10
2018-03-14T11:39:41.516Z,6.20
2018-03-14T11:42:09.642Z,6.20
2018-03-14T11:44:38.629Z,6.30
2018-03-14T11:47:06.713Z,6.30
2018-03-14T11:49:35.618Z,6.80
2018-03-14T11:52:03.760Z,6.70
2018-03-14T11:54:31.898Z,6.90
2018-03-14T11:57:00.036Z,7.40
2018-03-14T11:59:28.179Z,7.80
2018-03-14T12:01:57.066Z,8.60
2018-03-14T12:04:26.008Z,8.50
2018-03-14T12:06:54.184Z,8.40
2018-03-14T12:09:22.358Z,9.10
2018-03-14T12:11:50.503Z,9.20
2018-03-14T12:14:18.640Z,8.10
2018-03-14T12:16:46.784Z,7.20
2018-03-14T12:19:14.942Z,6.80
2018-03-14T12:21:43.105Z,7.40
2018-03-14T12:24:11.239Z,7.60
2018-03-14T12:26:40.178Z,8.00
2018-03-14T12:29:08.352Z,8.00
2018-03-14T12:31:36.478Z,7.80
2018-03-14T12:34:04.609Z,8.00
2018-03-14T12:36:32.758Z,8.40
2018-03-14T12:39:00.894Z,8.50
2018-03-14T12:41:29.039Z,8.50
2018-03-14T12:43:57.299Z,8.20
2018-03-14T12:46:25.440Z,8.30
2018-03-14T12:48:53.573Z,8.10
2018-03-14T12:51:21.738Z,7.60
2018-03-14T12:53:51.034Z,7.60
2018-03-14T12:56:19.154Z,7.60
2018-03-14T12:58:47.304Z,7.50
2018-03-14T13:01:15.430Z,7.70
2018-03-14T13:03:43.584Z,7.60
2018-03-14T13:06:11.711Z,7.80
2018-03-14T13:08:39.856Z,7.90
2018-03-14T13:11:07.996Z,8.10
2018-03-14T13:13:36.146Z,8.30
2018-03-14T13:16:04.293Z,8.50
2018-03-14T13:18:33.217Z,8.20
2018-03-14T13:21:01.345Z,8.20
2018-03-14T13:23:30.254Z,8.60
2018-03-14T13:25:58.385Z,8.50
2018-03-14T13:28:26.545Z,8.40
2018-03-14T13:30:54.666Z,8.30
2018-03-14T13:33:22.806Z,8.00
2018-03-14T13:35:50.966Z,7.90
2018-03-14T13:38:19.097Z,8.10
2018-03-14T13:40:47.255Z,7.20
2018-03-14T13:43:16.254Z,7.40
2018-03-14T13:45:44.423Z,7.30
2018-03-14T13:48:12.566Z,7.40
2018-03-14T13:50:41.475Z,7.40
2018-03-14T13:53:09.622Z,7.40
2018-03-14T13:55:38.666Z,7.70
2018-03-14T13:58:06.782Z,7.70
2018-03-14T14:00:35.270Z,7.50
2018-03-14T14:03:03.421Z,7.80
2018-03-14T14:05:31.569Z,8.00
2018-03-14T14:07:59.693Z,8.10
2018-03-14T14:10:28.590Z,7.70
2018-03-14T14:12:56.732Z,7.70
2018-03-14T14:15:24.850Z,7.90
2018-03-14T14:17:53.002Z,8.00
2018-03-14T14:20:21.924Z,7.70
2018-03-14T14:22:50.078Z,7.70
2018-03-14T14:25:18.262Z,7.80
2018-03-14T14:27:46.412Z,7.20
2018-03-14T14:30:14.534Z,7.00
2018-03-14T14:32:42.678Z,7.10
2018-03-14T14:35:10.801Z,7.00
2018-03-14T14:37:38.946Z,7.00
2018-03-14T14:40:07.072Z,7.40
2018-03-14T14:42:35.256Z,7.10
2018-03-14T14:45:03.378Z,7.30
2018-03-14T14:47:31.498Z,7.40
2018-03-14T14:49:59.642Z,7.40
2018-03-14T14:52:27.774Z,7.40
2018-03-14T14:54:55.935Z,7.60
2018-03-14T14:57:24.060Z,8.10
2018-03-14T14:59:52.962Z,8.40
2018-03-14T15:02:21.095Z,8.40
2018-03-14T15:04:49.250Z,8.40
2018-03-14T15:07:17.378Z,8.50
2018-03-14T15:09:45.507Z,8.40
2018-03-14T15:12:13.618Z,8.40
2018-03-14T15:14:41.788Z,8.50
2018-03-14T15:17:10.671Z,8.70
2018-03-14T15:19:38.814Z,8.70
2018-03-14T15:22:06.931Z,8.50
2018-03-14T15:24:35.077Z,8.20
2018-03-14T15:27:03.298Z,8.50
2018-03-14T15:29:31.416Z,8.60
2018-03-14T15:31:59.530Z,8.70
2018-03-14T15:34:28.430Z,8.70
2018-03-14T15:36:56.567Z,8.60
2018-03-14T15:39:24.698Z,8.50
2018-03-14T15:41:52.826Z,8.20
2018-03-14T15:44:20.945Z,8.40
2018-03-14T15:46:49.945Z,8.20
2018-03-14T15:49:18.153Z,8.30
2018-03-14T15:51:47.971Z,8.10
2018-03-14T15:54:16.162Z,7.90
2018-03-14T15:56:44.319Z,8.00
2018-03-14T15:59:12.438Z,8.20
2018-03-14T16:01:41.363Z,8.00
2018-03-14T16:04:09.496Z,8.00
2018-03-14T16:06:37.634Z,8.00
2018-03-14T16:09:05.944Z,7.90
2018-03-14T16:11:34.182Z,7.80
2018-03-14T16:14:02.302Z,7.80
2018-03-14T16:16:31.201Z,7.70
2018-03-14T16:18:59.337Z,7.70
2018-03-14T16:21:27.479Z,7.60
2018-03-14T16:23:55.642Z,7.60
2018-03-14T16:26:23.778Z,7.60
2018-03-14T16:28:51.930Z,7.70
2018-03-14T16:31:20.110Z,7.60
2018-03-14T16:33:48.284Z,7.50
2018-03-14T16:36:16.400Z,7.40
2018-03-14T16:38:44.546Z,7.40
2018-03-14T16:41:12.698Z,7.20
2018-03-14T16:43:40.838Z,7.20
2018-03-14T16:46:08.974Z,7.20
2018-03-14T16:48:37.110Z,7.10
2018-03-14T16:51:06.004Z,7.00
2018-03-14T16:53:34.904Z,7.00
2018-03-14T16:56:03.027Z,7.00
2018-03-14T16:58:31.171Z,6.90
2018-03-14T17:00:59.291Z,6.90
2018-03-14T17:03:27.442Z,6.90
2018-03-14T17:05:55.571Z,6.80
2018-03-14T17:08:23.698Z,6.70
2018-03-14T17:10:51.848Z,6.70
2018-03-14T17:13:19.970Z,6.60
2018-03-14T17:15:48.884Z,6.50
2018-03-14T17:18:17.002Z,6.50
2018-03-14T17:20:45.145Z,6.50
2018-03-14T17:23:13.262Z,6.50
2018-03-14T17:25:42.171Z,6.50
2018-03-14T17:28:10.303Z,6.50
2018-03-14T17:30:38.510Z,6.50
2018-03-14T17:33:06.574Z,6.40
2018-03-14T17:35:34.746Z,6.20
2018-03-14T17:38:02.866Z,6.40
2018-03-14T17:40:31.015Z,6.40
2018-03-14T17:42:59.138Z,6.30
2018-03-14T17:45:27.317Z,6.20
2018-03-14T17:47:56.214Z,6.00
2018-03-14T17:50:24.393Z,6.00
2018-03-14T17:52:53.287Z,5.80
2018-03-14T17:55:21.417Z,5.70
2018-03-14T17:57:49.947Z,5.80
2018-03-14T18:00:18.828Z,5.70
2018-03-14T18:02:46.971Z,5.60
2018-03-14T18:05:15.109Z,5.60
2018-03-14T18:07:44.035Z,5.50
2018-03-14T18:10:12.522Z,5.50
2018-03-14T18:12:40.682Z,5.40
2018-03-14T18:15:08.822Z,5.50
2018-03-14T18:17:36.962Z,5.50
2018-03-14T18:20:05.092Z,5.40
2018-03-14T18:22:33.238Z,5.40
2018-03-14T18:25:01.371Z,5.30
2018-03-14T18:27:29.585Z,5.30
2018-03-14T18:29:58.500Z,5.00
2018-03-14T18:32:26.644Z,5.00
2018-03-14T18:34:54.777Z,4.90
2018-03-14T18:37:22.922Z,4.90
2018-03-14T18:39:51.826Z,4.80
2018-03-14T18:42:20.729Z,4.70
2018-03-14T18:44:48.863Z,4.70
2018-03-14T18:47:17.011Z,4.60
2018-03-14T18:49:45.575Z,4.50
2018-03-14T18:52:13.749Z,4.50
2018-03-14T18:54:41.886Z,4.50
2018-03-14T18:57:10.790Z,4.40
2018-03-14T18:59:38.926Z,4.40
2018-03-14T19:02:07.124Z,4.40
2018-03-14T19:04:35.231Z,4.30
2018-03-14T19:07:03.369Z,4.30
2018-03-14T19:09:31.531Z,4.20
2018-03-14T19:11:59.784Z,4.30
2018-03-14T19:14:27.939Z,4.20
2018-03-14T19:16:56.085Z,4.10
2018-03-14T19:19:24.571Z,4.00
2018-03-14T19:21:52.685Z,4.00
2018-03-14T19:24:21.611Z,4.00
2018-03-14T19:26:49.738Z,4.00
2018-03-14T19:29:18.649Z,3.70
2018-03-14T19:31:46.811Z,3.70
2018-03-14T19:34:15.748Z,3.80
2018-03-14T19:36:43.886Z,3.70
2018-03-14T19:39:12.782Z,3.70
2018-03-14T19:41:41.035Z,3.60
2018-03-14T19:44:09.955Z,3.70
2018-03-14T19:46:38.095Z,3.60
2018-03-14T19:49:07.002Z,3.50
2018-03-14T19:51:35.158Z,3.50
2018-03-14T19:54:04.092Z,3.50
2018-03-14T19:56:32.375Z,3.40
2018-03-14T19:59:00.571Z,3.40
2018-03-14T20:01:28.786Z,3.30
2018-03-14T20:03:56.934Z,3.40
2018-03-14T20:06:30.500Z,3.40
2018-03-14T20:09:03.243Z,3.30
2018-03-14T20:11:33.676Z,3.30
2018-03-14T20:14:07.588Z,3.30
2018-03-14T20:16:36.167Z,3.20
2018-03-14T20:19:05.943Z,3.20
2018-03-14T20:21:38.731Z,3.10
2018-03-14T20:24:10.303Z,3.20
2018-03-14T20:26:44.779Z,3.10
2018-03-14T20:29:15.690Z,3.10
2018-03-14T20:31:48.628Z,3.10
2018-03-14T20:34:18.153Z,3.10
2018-03-14T20:36:47.618Z,3.10
2018-03-14T20:39:17.635Z,3.00
2018-03-14T20:41:46.783Z,3.00
2018-03-14T20:44:21.200Z,2.90
2018-03-14T20:46:54.100Z,2.90
2018-03-14T20:49:23.704Z,2.80
2018-03-14T20:51:54.301Z,2.80
2018-03-14T20:54:29.159Z,2.80
2018-03-14T20:57:00.932Z,2.80
2018-03-14T20:59:32.119Z,2.80
2018-03-14T21:02:05.813Z,2.70
2018-03-14T21:04:35.224Z,2.70
2018-03-14T21:07:03.374Z,2.70
2018-03-14T21:09:32.349Z,2.70
2018-03-14T21:12:00.556Z,2.70
2018-03-14T21:14:28.725Z,2.70
2018-03-14T21:16:57.597Z,2.60
2018-03-14T21:19:26.525Z,2.60
2018-03-14T21:21:54.660Z,2.60
2018-03-14T21:24:22.823Z,2.60
2018-03-14T21:26:50.983Z,2.60
2018-03-14T21:29:19.139Z,2.50
2018-03-14T21:31:47.283Z,2.50
2018-03-14T21:34:15.446Z,2.50
2018-03-14T21:36:43.585Z,2.50
2018-03-14T21:39:11.711Z,2.40
2018-03-14T21:41:39.865Z,2.40
2018-03-14T21:44:08.009Z,2.30
2018-03-14T21:46:36.227Z,2.30
2018-03-14T21:49:04.367Z,2.30
2018-03-14T21:51:32.515Z,2.20
2018-03-14T21:54:00.679Z,2.20
2018-03-14T21:56:28.903Z,2.20
2018-03-14T21:58:56.970Z,2.20
2018-03-14T22:01:25.130Z,2.20
2018-03-14T22:03:53.271Z,2.20
2018-03-14T22:06:21.526Z,2.10
2018-03-14T22:08:49.654Z,2.10
2018-03-14T22:11:17.752Z,2.00
2018-03-14T22:13:45.887Z,2.00
2018-03-14T22:16:14.774Z,2.00
2018-03-14T22:18:43.690Z,2.00
2018-03-14T22:21:11.811Z,1.90
2018-03-14T22:23:39.972Z,1.90
2018-03-14T22:26:08.135Z,1.90
2018-03-14T22:28:36.297Z,1.90
2018-03-14T22:31:04.439Z,1.90
2018-03-14T22:33:32.606Z,1.90
2018-03-14T22:36:00.750Z,1.80
2018-03-14T22:38:28.904Z,1.80
2018-03-14T22:40:57.114Z,1.80
2018-03-14T22:43:25.258Z,1.70
2018-03-14T22:45:53.389Z,1.70
2018-03-14T22:48:21.560Z,1.70
2018-03-14T22:50:49.693Z,1.70
2018-03-14T22:53:18.694Z,1.70
2018-03-14T22:55:46.838Z,1.70
2018-03-14T22:58:14.984Z,1.60
2018-03-14T23:00:43.149Z,1.60
2018-03-14T23:03:12.053Z,1.50
2018-03-14T23:05:40.204Z,1.50
2018-03-14T23:08:08.370Z,1.40
2018-03-14T23:10:36.602Z,1.40
2018-03-14T23:13:04.745Z,1.40
2018-03-14T23:15:32.879Z,1.40
2018-03-14T23:18:01.010Z,1.40
2018-03-14T23:20:29.147Z,1.40
2018-03-14T23:22:57.278Z,1.40
2018-03-14T23:25:25.418Z,1.40
2018-03-14T23:27:53.555Z,1.40
2018-03-14T23:30:21.719Z,1.30
2018-03-14T23:32:49.877Z,1.30
2018-03-14T23:35:18.020Z,1.30
2018-03-14T23:37:46.176Z,1.20
2018-03-14T23:40:14.324Z,1.20
2018-03-14T23:42:42.475Z,1.20
2018-03-14T23:45:10.612Z,1.20
2018-03-14T23:47:39.509Z,1.10
2018-03-14T23:50:08.470Z,1.10
2018-03-14T23:52:36.643Z,1.10
2018-03-14T23:55:05.520Z,1.00
2018-03-14T23:57:33.658Z,1.00
